sensor_id;sensor_type;location;lat;lon;timestamp;temperature;humidity
22923;DHT22;11627;51.322;22.816;2022-07-15T00:00:53;17.70;1.00
22923;DHT22;11627;51.322;22.816;2022-07-15T00:03:21;17.60;1.00
22923;DHT22;11627;51.322;22.816;2022-07-15T00:05:49;17.80;1.00
22923;DHT22;11627;51.322;22.816;2022-07-15T00:08:15;17.70;1.00
22923;DHT22;11627;51.322;22.816;2022-07-15T00:10:42;17.70;1.00
22923;DHT22;11627;51.322;22.816;2022-07-15T00:13:07;17.70;1.00
22923;DHT22;11627;51.322;22.816;2022-07-15T00:15:33;18.80;1.00
22923;DHT22;11627;51.322;22.816;2022-07-15T00:18:00;17.60;1.00
22923;DHT22;11627;51.322;22.816;2022-07-15T00:20:32;17.50;1.00
22923;DHT22;11627;51.322;22.816;2022-07-15T00:23:03;17.50;1.00
22923;DHT22;11627;51.322;22.816;2022-07-15T00:25:32;18.40;1.00
22923;DHT22;11627;51.322;22.816;2022-07-15T00:28:04;17.40;1.00
22923;DHT22;11627;51.322;22.816;2022-07-15T00:30:37;17.20;1.00
22923;DHT22;11627;51.322;22.816;2022-07-15T00:33:19;17.10;1.00
22923;DHT22;11627;51.322;22.816;2022-07-15T00:35:46;17.10;1.00
22923;DHT22;11627;51.322;22.816;2022-07-15T00:38:14;17.10;1.00
22923;DHT22;11627;51.322;22.816;2022-07-15T00:40:48;17.20;1.00
22923;DHT22;11627;51.322;22.816;2022-07-15T00:43:17;17.30;1.00
22923;DHT22;11627;51.322;22.816;2022-07-15T00:45:45;17.40;1.00
22923;DHT22;11627;51.322;22.816;2022-07-15T00:48:12;17.40;1.00
22923;DHT22;11627;51.322;22.816;2022-07-15T00:50:38;17.40;1.00
22923;DHT22;11627;51.322;22.816;2022-07-15T00:53:17;17.40;1.00
22923;DHT22;11627;51.322;22.816;2022-07-15T00:55:45;17.40;1.00
22923;DHT22;11627;51.322;22.816;2022-07-15T00:58:18;17.60;1.00
22923;DHT22;11627;51.322;22.816;2022-07-15T01:00:48;17.50;1.00
22923;DHT22;11627;51.322;22.816;2022-07-15T01:03:16;17.50;1.00
22923;DHT22;11627;51.322;22.816;2022-07-15T01:05:45;17.60;1.00
22923;DHT22;11627;51.322;22.816;2022-07-15T01:08:13;17.70;1.00
22923;DHT22;11627;51.322;22.816;2022-07-15T01:10:40;17.60;1.00
22923;DHT22;11627;51.322;22.816;2022-07-15T01:13:08;17.70;1.00
22923;DHT22;11627;51.322;22.816;2022-07-15T01:15:33;17.50;1.00
22923;DHT22;11627;51.322;22.816;2022-07-15T01:18:02;17.40;1.00
22923;DHT22;11627;51.322;22.816;2022-07-15T01:20:29;17.40;1.00
22923;DHT22;11627;51.322;22.816;2022-07-15T01:22:57;17.30;1.00
22923;DHT22;11627;51.322;22.816;2022-07-15T01:25:24;17.40;1.00
22923;DHT22;11627;51.322;22.816;2022-07-15T01:27:50;17.40;1.00
22923;DHT22;11627;51.322;22.816;2022-07-15T01:30:16;17.50;1.00
22923;DHT22;11627;51.322;22.816;2022-07-15T01:32:43;17.50;1.00
22923;DHT22;11627;51.322;22.816;2022-07-15T01:35:08;17.60;1.00
22923;DHT22;11627;51.322;22.816;2022-07-15T01:37:36;17.50;1.00
22923;DHT22;11627;51.322;22.816;2022-07-15T01:40:01;18.50;1.00
22923;DHT22;11627;51.322;22.816;2022-07-15T01:42:29;17.70;1.00
22923;DHT22;11627;51.322;22.816;2022-07-15T01:44:55;17.60;1.00
22923;DHT22;11627;51.322;22.816;2022-07-15T01:47:21;17.50;1.00
22923;DHT22;11627;51.322;22.816;2022-07-15T01:49:48;17.50;1.00
22923;DHT22;11627;51.322;22.816;2022-07-15T01:52:15;17.40;1.00
22923;DHT22;11627;51.322;22.816;2022-07-15T01:54:41;17.30;1.00
22923;DHT22;11627;51.322;22.816;2022-07-15T01:57:06;17.80;1.00
22923;DHT22;11627;51.322;22.816;2022-07-15T01:59:32;16.80;1.00
22923;DHT22;11627;51.322;22.816;2022-07-15T02:01:59;17.50;1.00
22923;DHT22;11627;51.322;22.816;2022-07-15T02:04:27;16.60;2.60
22923;DHT22;11627;51.322;22.816;2022-07-15T02:06:53;16.70;1.00
22923;DHT22;11627;51.322;22.816;2022-07-15T02:09:20;16.60;2.20
22923;DHT22;11627;51.322;22.816;2022-07-15T02:11:46;16.60;3.60
22923;DHT22;11627;51.322;22.816;2022-07-15T02:14:13;16.50;8.00
22923;DHT22;11627;51.322;22.816;2022-07-15T02:16:39;16.50;6.90
22923;DHT22;11627;51.322;22.816;2022-07-15T02:19:06;16.50;7.30
22923;DHT22;11627;51.322;22.816;2022-07-15T02:21:34;16.50;6.40
22923;DHT22;11627;51.322;22.816;2022-07-15T02:24:01;16.50;5.70
22923;DHT22;11627;51.322;22.816;2022-07-15T02:26:27;16.60;3.20
22923;DHT22;11627;51.322;22.816;2022-07-15T02:28:54;16.60;1.20
22923;DHT22;11627;51.322;22.816;2022-07-15T02:31:21;18.90;2.60
22923;DHT22;11627;51.322;22.816;2022-07-15T02:33:47;16.70;1.60
22923;DHT22;11627;51.322;22.816;2022-07-15T02:36:13;16.80;1.00
22923;DHT22;11627;51.322;22.816;2022-07-15T02:38:39;16.80;1.00
22923;DHT22;11627;51.322;22.816;2022-07-15T02:41:07;16.80;1.00
22923;DHT22;11627;51.322;22.816;2022-07-15T02:43:35;16.80;1.00
22923;DHT22;11627;51.322;22.816;2022-07-15T02:46:02;16.80;1.00
22923;DHT22;11627;51.322;22.816;2022-07-15T02:48:38;16.80;1.00
22923;DHT22;11627;51.322;22.816;2022-07-15T02:51:04;16.80;1.00
22923;DHT22;11627;51.322;22.816;2022-07-15T02:53:32;16.90;1.00
22923;DHT22;11627;51.322;22.816;2022-07-15T02:55:58;16.90;1.00
22923;DHT22;11627;51.322;22.816;2022-07-15T02:58:26;17.00;1.00
22923;DHT22;11627;51.322;22.816;2022-07-15T03:00:54;17.00;1.00
22923;DHT22;11627;51.322;22.816;2022-07-15T03:03:21;17.00;1.00
22923;DHT22;11627;51.322;22.816;2022-07-15T03:05:46;17.10;1.00
22923;DHT22;11627;51.322;22.816;2022-07-15T03:08:12;17.00;1.00
22923;DHT22;11627;51.322;22.816;2022-07-15T03:10:39;17.10;1.00
22923;DHT22;11627;51.322;22.816;2022-07-15T03:13:06;17.10;1.00
22923;DHT22;11627;51.322;22.816;2022-07-15T03:15:31;17.10;1.00
22923;DHT22;11627;51.322;22.816;2022-07-15T03:17:58;17.20;1.00
22923;DHT22;11627;51.322;22.816;2022-07-15T03:20:24;17.10;1.00
22923;DHT22;11627;51.322;22.816;2022-07-15T03:22:51;17.20;1.00
22923;DHT22;11627;51.322;22.816;2022-07-15T03:25:16;17.20;1.00
22923;DHT22;11627;51.322;22.816;2022-07-15T03:27:43;17.30;1.00
22923;DHT22;11627;51.322;22.816;2022-07-15T03:30:09;17.30;1.00
22923;DHT22;11627;51.322;22.816;2022-07-15T03:32:36;17.20;1.00
22923;DHT22;11627;51.322;22.816;2022-07-15T03:35:02;17.10;1.00
22923;DHT22;11627;51.322;22.816;2022-07-15T03:37:29;17.10;1.00
22923;DHT22;11627;51.322;22.816;2022-07-15T03:39:56;17.20;1.00
22923;DHT22;11627;51.322;22.816;2022-07-15T03:42:23;17.10;1.00
22923;DHT22;11627;51.322;22.816;2022-07-15T03:44:49;17.00;2.90
22923;DHT22;11627;51.322;22.816;2022-07-15T03:47:15;17.00;5.50
22923;DHT22;11627;51.322;22.816;2022-07-15T03:49:41;17.00;10.60
22923;DHT22;11627;51.322;22.816;2022-07-15T03:52:08;17.00;13.00
22923;DHT22;11627;51.322;22.816;2022-07-15T03:54:35;17.10;14.20
22923;DHT22;11627;51.322;22.816;2022-07-15T03:57:00;17.00;15.50
22923;DHT22;11627;51.322;22.816;2022-07-15T03:59:27;17.10;15.00
22923;DHT22;11627;51.322;22.816;2022-07-15T04:01:54;17.10;13.70
22923;DHT22;11627;51.322;22.816;2022-07-15T04:04:21;17.10;16.00
22923;DHT22;11627;51.322;22.816;2022-07-15T04:06:47;17.10;16.00
22923;DHT22;11627;51.322;22.816;2022-07-15T04:09:14;17.10;20.00
22923;DHT22;11627;51.322;22.816;2022-07-15T04:11:39;17.30;19.30
22923;DHT22;11627;51.322;22.816;2022-07-15T04:14:13;17.30;18.80
22923;DHT22;11627;51.322;22.816;2022-07-15T04:16:43;17.40;18.40
22923;DHT22;11627;51.322;22.816;2022-07-15T04:19:10;17.40;16.80
22923;DHT22;11627;51.322;22.816;2022-07-15T04:21:36;17.30;20.50
22923;DHT22;11627;51.322;22.816;2022-07-15T04:24:03;17.30;21.10
22923;DHT22;11627;51.322;22.816;2022-07-15T04:26:28;17.40;21.50
22923;DHT22;11627;51.322;22.816;2022-07-15T04:28:56;17.40;22.20
22923;DHT22;11627;51.322;22.816;2022-07-15T04:31:22;17.50;22.20
22923;DHT22;11627;51.322;22.816;2022-07-15T04:33:49;17.60;20.00
22923;DHT22;11627;51.322;22.816;2022-07-15T04:36:16;17.60;21.50
22923;DHT22;11627;51.322;22.816;2022-07-15T04:38:42;17.50;22.00
22923;DHT22;11627;51.322;22.816;2022-07-15T04:41:07;17.60;21.60
22923;DHT22;11627;51.322;22.816;2022-07-15T04:43:34;17.70;20.60
22923;DHT22;11627;51.322;22.816;2022-07-15T04:46:00;17.60;20.40
22923;DHT22;11627;51.322;22.816;2022-07-15T04:48:26;17.70;21.40
22923;DHT22;11627;51.322;22.816;2022-07-15T04:51:10;17.60;23.50
22923;DHT22;11627;51.322;22.816;2022-07-15T04:53:37;17.60;24.40
22923;DHT22;11627;51.322;22.816;2022-07-15T04:56:02;17.60;24.20
22923;DHT22;11627;51.322;22.816;2022-07-15T04:58:28;17.60;25.10
22923;DHT22;11627;51.322;22.816;2022-07-15T05:00:55;17.60;24.10
22923;DHT22;11627;51.322;22.816;2022-07-15T05:03:22;19.10;22.40
22923;DHT22;11627;51.322;22.816;2022-07-15T05:05:47;17.50;23.90
22923;DHT22;11627;51.322;22.816;2022-07-15T05:08:13;17.60;26.80
22923;DHT22;11627;51.322;22.816;2022-07-15T05:10:39;17.60;24.70
22923;DHT22;11627;51.322;22.816;2022-07-15T05:13:06;17.70;24.60
22923;DHT22;11627;51.322;22.816;2022-07-15T05:15:32;17.70;22.70
22923;DHT22;11627;51.322;22.816;2022-07-15T05:18:00;17.70;21.50
22923;DHT22;11627;51.322;22.816;2022-07-15T05:20:26;17.70;23.20
22923;DHT22;11627;51.322;22.816;2022-07-15T05:22:52;17.70;24.00
22923;DHT22;11627;51.322;22.816;2022-07-15T05:25:18;17.70;23.10
22923;DHT22;11627;51.322;22.816;2022-07-15T05:27:45;17.70;22.60
22923;DHT22;11627;51.322;22.816;2022-07-15T05:30:12;17.80;31.50
22923;DHT22;11627;51.322;22.816;2022-07-15T05:32:39;17.80;26.40
22923;DHT22;11627;51.322;22.816;2022-07-15T05:35:05;17.70;17.80
22923;DHT22;11627;51.322;22.816;2022-07-15T05:37:37;17.70;10.50
22923;DHT22;11627;51.322;22.816;2022-07-15T05:40:08;17.70;20.10
22923;DHT22;11627;51.322;22.816;2022-07-15T05:42:35;17.70;19.30
22923;DHT22;11627;51.322;22.816;2022-07-15T05:45:02;17.60;9.60
22923;DHT22;11627;51.322;22.816;2022-07-15T05:47:29;17.50;1.00
22923;DHT22;11627;51.322;22.816;2022-07-15T05:49:55;17.80;7.60
22923;DHT22;11627;51.322;22.816;2022-07-15T05:52:22;17.40;1.70
22923;DHT22;11627;51.322;22.816;2022-07-15T05:54:49;17.40;5.40
22923;DHT22;11627;51.322;22.816;2022-07-15T05:57:16;17.70;10.40
22923;DHT22;11627;51.322;22.816;2022-07-15T05:59:43;17.40;8.00
22923;DHT22;11627;51.322;22.816;2022-07-15T06:02:10;17.30;8.10
22923;DHT22;11627;51.322;22.816;2022-07-15T06:04:37;17.40;12.70
22923;DHT22;11627;51.322;22.816;2022-07-15T06:07:04;17.40;2.10
22923;DHT22;11627;51.322;22.816;2022-07-15T06:09:30;17.40;1.00
22923;DHT22;11627;51.322;22.816;2022-07-15T06:11:57;17.40;1.00
22923;DHT22;11627;51.322;22.816;2022-07-15T06:14:24;17.30;1.00
22923;DHT22;11627;51.322;22.816;2022-07-15T06:16:50;17.30;1.00
22923;DHT22;11627;51.322;22.816;2022-07-15T06:19:16;17.40;1.00
22923;DHT22;11627;51.322;22.816;2022-07-15T06:21:42;17.30;1.00
22923;DHT22;11627;51.322;22.816;2022-07-15T06:24:08;17.20;1.00
22923;DHT22;11627;51.322;22.816;2022-07-15T06:26:34;17.30;1.00
22923;DHT22;11627;51.322;22.816;2022-07-15T06:29:00;17.30;1.00
22923;DHT22;11627;51.322;22.816;2022-07-15T06:31:26;17.30;1.00
22923;DHT22;11627;51.322;22.816;2022-07-15T06:33:53;17.30;1.00
22923;DHT22;11627;51.322;22.816;2022-07-15T06:36:18;17.50;1.00
22923;DHT22;11627;51.322;22.816;2022-07-15T06:38:44;17.70;1.00
22923;DHT22;11627;51.322;22.816;2022-07-15T06:41:11;17.60;1.00
22923;DHT22;11627;51.322;22.816;2022-07-15T06:43:37;17.70;1.00
22923;DHT22;11627;51.322;22.816;2022-07-15T06:46:04;17.80;1.00
22923;DHT22;11627;51.322;22.816;2022-07-15T06:48:31;17.80;1.00
22923;DHT22;11627;51.322;22.816;2022-07-15T06:50:58;17.80;1.00
22923;DHT22;11627;51.322;22.816;2022-07-15T06:53:25;17.90;1.00
22923;DHT22;11627;51.322;22.816;2022-07-15T06:55:52;17.90;1.00
22923;DHT22;11627;51.322;22.816;2022-07-15T06:58:19;17.90;1.00
22923;DHT22;11627;51.322;22.816;2022-07-15T07:00:46;18.90;1.00
22923;DHT22;11627;51.322;22.816;2022-07-15T07:03:13;17.90;1.00
22923;DHT22;11627;51.322;22.816;2022-07-15T07:05:40;18.00;1.00
22923;DHT22;11627;51.322;22.816;2022-07-15T07:08:07;18.00;1.00
22923;DHT22;11627;51.322;22.816;2022-07-15T07:10:34;18.00;1.00
22923;DHT22;11627;51.322;22.816;2022-07-15T07:13:01;18.10;1.00
22923;DHT22;11627;51.322;22.816;2022-07-15T07:15:27;18.00;1.00
22923;DHT22;11627;51.322;22.816;2022-07-15T07:17:54;18.20;1.00
22923;DHT22;11627;51.322;22.816;2022-07-15T07:20:21;18.40;1.00
22923;DHT22;11627;51.322;22.816;2022-07-15T07:22:48;18.50;1.00
22923;DHT22;11627;51.322;22.816;2022-07-15T07:25:14;18.40;1.00
22923;DHT22;11627;51.322;22.816;2022-07-15T07:27:41;18.60;1.00
22923;DHT22;11627;51.322;22.816;2022-07-15T07:30:07;19.10;1.00
22923;DHT22;11627;51.322;22.816;2022-07-15T07:32:33;18.70;1.00
22923;DHT22;11627;51.322;22.816;2022-07-15T07:35:01;18.70;1.00
22923;DHT22;11627;51.322;22.816;2022-07-15T07:37:32;18.70;1.00
22923;DHT22;11627;51.322;22.816;2022-07-15T07:39:59;18.80;1.00
22923;DHT22;11627;51.322;22.816;2022-07-15T07:42:26;18.90;1.00
22923;DHT22;11627;51.322;22.816;2022-07-15T07:44:53;19.60;1.00
22923;DHT22;11627;51.322;22.816;2022-07-15T07:47:20;19.10;1.00
22923;DHT22;11627;51.322;22.816;2022-07-15T07:49:47;19.20;1.00
22923;DHT22;11627;51.322;22.816;2022-07-15T07:52:14;19.20;1.00
22923;DHT22;11627;51.322;22.816;2022-07-15T07:54:44;20.90;1.00
22923;DHT22;11627;51.322;22.816;2022-07-15T07:57:12;19.70;1.00
22923;DHT22;11627;51.322;22.816;2022-07-15T07:59:39;19.50;1.00
22923;DHT22;11627;51.322;22.816;2022-07-15T08:02:06;19.50;1.00
22923;DHT22;11627;51.322;22.816;2022-07-15T08:04:33;19.70;1.00
22923;DHT22;11627;51.322;22.816;2022-07-15T08:09:26;19.60;1.00
22923;DHT22;11627;51.322;22.816;2022-07-15T08:11:53;19.60;1.00
22923;DHT22;11627;51.322;22.816;2022-07-15T08:14:21;19.70;1.00
22923;DHT22;11627;51.322;22.816;2022-07-15T08:16:48;19.80;1.00
22923;DHT22;11627;51.322;22.816;2022-07-15T08:19:16;19.60;99.90
22923;DHT22;11627;51.322;22.816;2022-07-15T08:21:43;20.50;1.00
22923;DHT22;11627;51.322;22.816;2022-07-15T08:24:10;19.70;1.00
22923;DHT22;11627;51.322;22.816;2022-07-15T08:26:39;20.10;1.00
22923;DHT22;11627;51.322;22.816;2022-07-15T08:29:06;19.90;1.00
22923;DHT22;11627;51.322;22.816;2022-07-15T08:31:33;19.90;1.00
22923;DHT22;11627;51.322;22.816;2022-07-15T08:34:05;19.90;1.00
22923;DHT22;11627;51.322;22.816;2022-07-15T08:36:32;19.90;1.00
22923;DHT22;11627;51.322;22.816;2022-07-15T08:38:59;20.20;99.90
22923;DHT22;11627;51.322;22.816;2022-07-15T08:41:26;20.00;99.90
22923;DHT22;11627;51.322;22.816;2022-07-15T08:43:53;20.70;1.00
22923;DHT22;11627;51.322;22.816;2022-07-15T08:46:20;19.90;1.00
22923;DHT22;11627;51.322;22.816;2022-07-15T08:48:51;20.00;1.00
22923;DHT22;11627;51.322;22.816;2022-07-15T08:51:23;19.90;99.90
22923;DHT22;11627;51.322;22.816;2022-07-15T08:53:51;19.90;99.90
22923;DHT22;11627;51.322;22.816;2022-07-15T08:56:19;20.00;99.90
22923;DHT22;11627;51.322;22.816;2022-07-15T08:58:46;20.20;99.90
22923;DHT22;11627;51.322;22.816;2022-07-15T09:01:14;20.20;99.90
22923;DHT22;11627;51.322;22.816;2022-07-15T09:03:41;20.20;99.90
22923;DHT22;11627;51.322;22.816;2022-07-15T09:06:08;20.30;99.90
22923;DHT22;11627;51.322;22.816;2022-07-15T09:08:35;20.30;99.90
22923;DHT22;11627;51.322;22.816;2022-07-15T09:11:01;20.30;99.90
22923;DHT22;11627;51.322;22.816;2022-07-15T09:13:38;20.30;99.90
22923;DHT22;11627;51.322;22.816;2022-07-15T09:16:10;20.10;99.90
22923;DHT22;11627;51.322;22.816;2022-07-15T09:18:44;20.10;99.90
22923;DHT22;11627;51.322;22.816;2022-07-15T09:23:50;20.20;99.90
22923;DHT22;11627;51.322;22.816;2022-07-15T09:26:36;20.30;99.90
22923;DHT22;11627;51.322;22.816;2022-07-15T09:29:04;20.50;99.90
22923;DHT22;11627;51.322;22.816;2022-07-15T09:31:58;20.50;99.90
22923;DHT22;11627;51.322;22.816;2022-07-15T09:35:06;20.50;99.90
22923;DHT22;11627;51.322;22.816;2022-07-15T09:37:58;20.40;99.90
22923;DHT22;11627;51.322;22.816;2022-07-15T09:40:25;20.40;99.90
22923;DHT22;11627;51.322;22.816;2022-07-15T09:43:03;21.90;99.90
22923;DHT22;11627;51.322;22.816;2022-07-15T09:45:33;20.50;99.90
22923;DHT22;11627;51.322;22.816;2022-07-15T09:48:11;20.40;99.90
22923;DHT22;11627;51.322;22.816;2022-07-15T09:50:42;20.30;99.90
22923;DHT22;11627;51.322;22.816;2022-07-15T09:53:14;21.10;99.90
22923;DHT22;11627;51.322;22.816;2022-07-15T09:55:40;20.60;99.90
22923;DHT22;11627;51.322;22.816;2022-07-15T10:00:39;20.70;99.90
22923;DHT22;11627;51.322;22.816;2022-07-15T10:03:06;20.70;99.90
22923;DHT22;11627;51.322;22.816;2022-07-15T10:05:35;20.70;99.90
22923;DHT22;11627;51.322;22.816;2022-07-15T10:08:03;20.60;99.90
22923;DHT22;11627;51.322;22.816;2022-07-15T10:10:33;20.60;99.90
22923;DHT22;11627;51.322;22.816;2022-07-15T10:13:05;20.60;99.90
22923;DHT22;11627;51.322;22.816;2022-07-15T10:22:50;20.70;99.90
22923;DHT22;11627;51.322;22.816;2022-07-15T10:25:47;20.90;1.00
22923;DHT22;11627;51.322;22.816;2022-07-15T10:31:59;20.90;99.90
22923;DHT22;11627;51.322;22.816;2022-07-15T10:34:37;21.00;99.90
22923;DHT22;11627;51.322;22.816;2022-07-15T10:37:13;21.10;99.90
22923;DHT22;11627;51.322;22.816;2022-07-15T10:39:59;21.00;99.90
22923;DHT22;11627;51.322;22.816;2022-07-15T10:42:59;21.70;99.90
22923;DHT22;11627;51.322;22.816;2022-07-15T10:45:29;21.00;99.90
22923;DHT22;11627;51.322;22.816;2022-07-15T10:48:29;21.00;99.90
22923;DHT22;11627;51.322;22.816;2022-07-15T10:50:57;21.20;99.90
22923;DHT22;11627;51.322;22.816;2022-07-15T10:53:25;21.20;99.90
22923;DHT22;11627;51.322;22.816;2022-07-15T10:55:54;21.10;99.90
22923;DHT22;11627;51.322;22.816;2022-07-15T10:58:21;21.30;99.90
22923;DHT22;11627;51.322;22.816;2022-07-15T11:00:48;20.90;99.90
22923;DHT22;11627;51.322;22.816;2022-07-15T11:03:19;20.70;99.90
22923;DHT22;11627;51.322;22.816;2022-07-15T11:13:46;20.60;99.90
22923;DHT22;11627;51.322;22.816;2022-07-15T11:16:16;20.60;99.90
22923;DHT22;11627;51.322;22.816;2022-07-15T11:18:54;20.70;99.90
22923;DHT22;11627;51.322;22.816;2022-07-15T11:21:24;20.80;99.90
22923;DHT22;11627;51.322;22.816;2022-07-15T11:23:53;20.90;99.90
22923;DHT22;11627;51.322;22.816;2022-07-15T11:26:21;21.00;99.90
22923;DHT22;11627;51.322;22.816;2022-07-15T11:28:55;21.00;99.90
22923;DHT22;11627;51.322;22.816;2022-07-15T11:31:24;21.00;99.90
22923;DHT22;11627;51.322;22.816;2022-07-15T11:33:55;21.00;99.90
22923;DHT22;11627;51.322;22.816;2022-07-15T11:36:25;21.00;99.90
22923;DHT22;11627;51.322;22.816;2022-07-15T11:38:52;21.00;99.90
22923;DHT22;11627;51.322;22.816;2022-07-15T11:41:18;21.00;99.90
22923;DHT22;11627;51.322;22.816;2022-07-15T11:44:08;21.10;99.90
22923;DHT22;11627;51.322;22.816;2022-07-15T11:46:57;22.70;99.90
22923;DHT22;11627;51.322;22.816;2022-07-15T11:49:44;21.30;99.90
22923;DHT22;11627;51.322;22.816;2022-07-15T11:52:29;21.40;99.90
22923;DHT22;11627;51.322;22.816;2022-07-15T11:54:56;22.00;99.90
22923;DHT22;11627;51.322;22.816;2022-07-15T11:57:23;22.00;99.90
22923;DHT22;11627;51.322;22.816;2022-07-15T11:59:57;21.20;99.90
22923;DHT22;11627;51.322;22.816;2022-07-15T12:02:26;21.10;99.90
22923;DHT22;11627;51.322;22.816;2022-07-15T12:05:04;21.40;99.90
22923;DHT22;11627;51.322;22.816;2022-07-15T12:07:41;21.10;99.90
22923;DHT22;11627;51.322;22.816;2022-07-15T12:10:11;21.30;99.90
22923;DHT22;11627;51.322;22.816;2022-07-15T12:12:56;21.30;99.90
22923;DHT22;11627;51.322;22.816;2022-07-15T12:15:22;21.40;99.90
22923;DHT22;11627;51.322;22.816;2022-07-15T12:17:49;21.60;99.90
22923;DHT22;11627;51.322;22.816;2022-07-15T12:20:16;21.10;99.90
22923;DHT22;11627;51.322;22.816;2022-07-15T12:23:10;21.20;99.90
22923;DHT22;11627;51.322;22.816;2022-07-15T12:25:37;21.30;99.90
22923;DHT22;11627;51.322;22.816;2022-07-15T12:28:05;21.30;99.90
22923;DHT22;11627;51.322;22.816;2022-07-15T12:30:34;21.50;99.90
22923;DHT22;11627;51.322;22.816;2022-07-15T12:33:20;21.50;99.90
22923;DHT22;11627;51.322;22.816;2022-07-15T12:35:48;21.50;99.90
22923;DHT22;11627;51.322;22.816;2022-07-15T12:38:33;21.40;99.90
22923;DHT22;11627;51.322;22.816;2022-07-15T12:41:24;22.50;99.90
22923;DHT22;11627;51.322;22.816;2022-07-15T12:43:58;21.20;99.90
22923;DHT22;11627;51.322;22.816;2022-07-15T12:46:51;21.30;99.90
22923;DHT22;11627;51.322;22.816;2022-07-15T12:52:45;21.50;99.90
22923;DHT22;11627;51.322;22.816;2022-07-15T12:55:22;21.40;99.90
22923;DHT22;11627;51.322;22.816;2022-07-15T12:58:10;21.50;99.90
22923;DHT22;11627;51.322;22.816;2022-07-15T13:00:40;22.10;99.90
22923;DHT22;11627;51.322;22.816;2022-07-15T13:03:18;21.60;99.90
22923;DHT22;11627;51.322;22.816;2022-07-15T13:05:51;21.60;99.90
22923;DHT22;11627;51.322;22.816;2022-07-15T13:08:24;23.20;99.90
22923;DHT22;11627;51.322;22.816;2022-07-15T13:10:54;23.40;99.90
22923;DHT22;11627;51.322;22.816;2022-07-15T13:13:23;21.30;99.90
22923;DHT22;11627;51.322;22.816;2022-07-15T13:15:51;21.50;99.90
22923;DHT22;11627;51.322;22.816;2022-07-15T13:18:19;21.30;99.90
22923;DHT22;11627;51.322;22.816;2022-07-15T13:20:45;21.70;99.90
22923;DHT22;11627;51.322;22.816;2022-07-15T13:23:14;21.30;99.90
22923;DHT22;11627;51.322;22.816;2022-07-15T13:25:41;21.20;99.90
22923;DHT22;11627;51.322;22.816;2022-07-15T13:28:10;21.40;99.90
22923;DHT22;11627;51.322;22.816;2022-07-15T13:30:47;21.40;99.90
22923;DHT22;11627;51.322;22.816;2022-07-15T13:33:15;21.30;99.90
22923;DHT22;11627;51.322;22.816;2022-07-15T13:35:42;21.30;99.90
22923;DHT22;11627;51.322;22.816;2022-07-15T13:38:09;21.20;99.90
22923;DHT22;11627;51.322;22.816;2022-07-15T13:40:36;21.10;99.90
22923;DHT22;11627;51.322;22.816;2022-07-15T13:43:03;21.00;99.90
22923;DHT22;11627;51.322;22.816;2022-07-15T13:45:30;21.00;99.90
22923;DHT22;11627;51.322;22.816;2022-07-15T13:47:57;21.10;99.90
22923;DHT22;11627;51.322;22.816;2022-07-15T13:50:25;20.90;99.90
22923;DHT22;11627;51.322;22.816;2022-07-15T13:53:10;21.70;99.90
22923;DHT22;11627;51.322;22.816;2022-07-15T13:55:37;23.00;99.90
22923;DHT22;11627;51.322;22.816;2022-07-15T13:58:09;21.00;99.90
22923;DHT22;11627;51.322;22.816;2022-07-15T14:00:37;21.10;99.90
22923;DHT22;11627;51.322;22.816;2022-07-15T14:03:07;21.20;99.90
22923;DHT22;11627;51.322;22.816;2022-07-15T14:05:34;22.80;99.90
22923;DHT22;11627;51.322;22.816;2022-07-15T14:08:02;21.60;99.90
22923;DHT22;11627;51.322;22.816;2022-07-15T14:10:30;21.20;99.90
22923;DHT22;11627;51.322;22.816;2022-07-15T14:12:58;21.20;99.90
22923;DHT22;11627;51.322;22.816;2022-07-15T14:15:25;21.10;99.90
22923;DHT22;11627;51.322;22.816;2022-07-15T14:17:52;21.10;99.90
22923;DHT22;11627;51.322;22.816;2022-07-15T14:20:19;21.10;99.90
22923;DHT22;11627;51.322;22.816;2022-07-15T14:22:46;21.30;99.90
22923;DHT22;11627;51.322;22.816;2022-07-15T14:25:12;21.20;99.90
22923;DHT22;11627;51.322;22.816;2022-07-15T14:27:39;21.00;99.90
22923;DHT22;11627;51.322;22.816;2022-07-15T14:30:07;21.20;99.90
22923;DHT22;11627;51.322;22.816;2022-07-15T14:32:34;21.10;99.90
22923;DHT22;11627;51.322;22.816;2022-07-15T14:35:01;21.20;99.90
22923;DHT22;11627;51.322;22.816;2022-07-15T14:37:29;21.20;99.90
22923;DHT22;11627;51.322;22.816;2022-07-15T14:39:56;21.40;99.90
22923;DHT22;11627;51.322;22.816;2022-07-15T14:42:23;20.70;99.90
22923;DHT22;11627;51.322;22.816;2022-07-15T14:44:50;21.10;99.90
22923;DHT22;11627;51.322;22.816;2022-07-15T14:47:18;21.10;99.90
22923;DHT22;11627;51.322;22.816;2022-07-15T14:49:45;21.10;99.90
22923;DHT22;11627;51.322;22.816;2022-07-15T14:52:12;21.00;99.90
22923;DHT22;11627;51.322;22.816;2022-07-15T14:54:39;21.20;99.90
22923;DHT22;11627;51.322;22.816;2022-07-15T14:57:06;20.10;99.90
22923;DHT22;11627;51.322;22.816;2022-07-15T14:59:53;21.20;99.90
22923;DHT22;11627;51.322;22.816;2022-07-15T15:04:50;20.90;99.90
22923;DHT22;11627;51.322;22.816;2022-07-15T15:07:45;20.80;99.90
22923;DHT22;11627;51.322;22.816;2022-07-15T15:10:32;20.90;99.90
22923;DHT22;11627;51.322;22.816;2022-07-15T15:12:59;20.90;99.90
22923;DHT22;11627;51.322;22.816;2022-07-15T15:15:28;21.00;99.90
22923;DHT22;11627;51.322;22.816;2022-07-15T15:17:55;21.30;99.90
22923;DHT22;11627;51.322;22.816;2022-07-15T15:22:49;21.30;99.90
22923;DHT22;11627;51.322;22.816;2022-07-15T15:25:16;21.70;99.90
22923;DHT22;11627;51.322;22.816;2022-07-15T15:28:05;21.70;99.90
22923;DHT22;11627;51.322;22.816;2022-07-15T15:30:35;22.20;99.90
22923;DHT22;11627;51.322;22.816;2022-07-15T15:33:02;21.70;99.90
22923;DHT22;11627;51.322;22.816;2022-07-15T15:35:29;22.30;99.90
22923;DHT22;11627;51.322;22.816;2022-07-15T15:37:57;22.60;99.90
22923;DHT22;11627;51.322;22.816;2022-07-15T15:40:24;22.60;99.90
22923;DHT22;11627;51.322;22.816;2022-07-15T15:42:51;22.80;99.90
22923;DHT22;11627;51.322;22.816;2022-07-15T15:45:18;23.70;99.90
22923;DHT22;11627;51.322;22.816;2022-07-15T15:47:45;23.40;99.90
22923;DHT22;11627;51.322;22.816;2022-07-15T15:50:11;23.50;99.90
22923;DHT22;11627;51.322;22.816;2022-07-15T15:52:37;24.00;99.90
22923;DHT22;11627;51.322;22.816;2022-07-15T15:55:04;23.90;99.90
22923;DHT22;11627;51.322;22.816;2022-07-15T15:57:32;23.80;99.90
22923;DHT22;11627;51.322;22.816;2022-07-15T15:59:59;24.50;99.90
22923;DHT22;11627;51.322;22.816;2022-07-15T16:02:26;25.00;99.90
22923;DHT22;11627;51.322;22.816;2022-07-15T16:07:20;24.50;99.90
22923;DHT22;11627;51.322;22.816;2022-07-15T16:09:47;22.90;99.90
22923;DHT22;11627;51.322;22.816;2022-07-15T16:12:16;22.50;99.90